sensor_id;sensor_type;location;lat;lon;timestamp;pressure;altitude;pressure_sealevel;temperature;humidity
77171;BME280;66144;50.020;14.422;2023-02-15T00:01:49;100499.41;;;4.77;70.67
77171;BME280;66144;50.020;14.422;2023-02-15T00:04:16;100501.31;;;4.83;69.92
77171;BME280;66144;50.020;14.422;2023-02-15T00:06:42;100502.97;;;4.76;69.89
77171;BME280;66144;50.020;14.422;2023-02-15T00:09:08;100505.06;;;4.65;70.85
77171;BME280;66144;50.020;14.422;2023-02-15T00:11:33;100495.53;;;4.73;70.54
77171;BME280;66144;50.020;14.422;2023-02-15T00:14:12;100502.00;;;4.69;70.47
77171;BME280;66144;50.020;14.422;2023-02-15T00:16:39;100502.66;;;4.55;71.07
77171;BME280;66144;50.020;14.422;2023-02-15T00:19:05;100502.34;;;4.50;71.42
77171;BME280;66144;50.020;14.422;2023-02-15T00:21:30;100498.78;;;4.51;71.11
77171;BME280;66144;50.020;14.422;2023-02-15T00:23:57;100497.00;;;4.51;71.33
77171;BME280;66144;50.020;14.422;2023-02-15T00:26:23;100497.81;;;4.52;71.60
77171;BME280;66144;50.020;14.422;2023-02-15T00:28:49;100501.22;;;4.61;70.75
77171;BME280;66144;50.020;14.422;2023-02-15T00:31:14;100498.28;;;4.64;70.81
77171;BME280;66144;50.020;14.422;2023-02-15T00:33:40;100499.94;;;4.57;71.16
77171;BME280;66144;50.020;14.422;2023-02-15T00:36:06;100493.94;;;4.56;71.27
77171;BME280;66144;50.020;14.422;2023-02-15T00:38:32;100492.28;;;4.63;70.83
77171;BME280;66144;50.020;14.422;2023-02-15T00:41:00;100492.47;;;4.54;71.14
77171;BME280;66144;50.020;14.422;2023-02-15T00:43:26;100488.13;;;4.54;71.23
77171;BME280;66144;50.020;14.422;2023-02-15T00:45:52;100489.25;;;4.60;71.18
77171;BME280;66144;50.020;14.422;2023-02-15T00:48:17;100484.72;;;4.62;71.10
77171;BME280;66144;50.020;14.422;2023-02-15T00:50:51;100480.69;;;4.59;70.64
77171;BME280;66144;50.020;14.422;2023-02-15T00:53:16;100486.16;;;4.64;70.88
77171;BME280;66144;50.020;14.422;2023-02-15T00:55:42;100481.00;;;4.56;71.35
77171;BME280;66144;50.020;14.422;2023-02-15T00:58:09;100483.59;;;4.48;71.50
77171;BME280;66144;50.020;14.422;2023-02-15T01:00:34;100482.94;;;4.54;70.94
77171;BME280;66144;50.020;14.422;2023-02-15T01:03:00;100479.06;;;4.58;70.93
77171;BME280;66144;50.020;14.422;2023-02-15T01:05:25;100485.53;;;4.54;70.77
77171;BME280;66144;50.020;14.422;2023-02-15T01:07:50;100481.34;;;4.37;71.47
77171;BME280;66144;50.020;14.422;2023-02-15T01:10:16;100482.63;;;4.49;71.29
77171;BME280;66144;50.020;14.422;2023-02-15T01:12:41;100473.91;;;4.42;71.45
77171;BME280;66144;50.020;14.422;2023-02-15T01:15:07;100467.94;;;4.41;71.65
77171;BME280;66144;50.020;14.422;2023-02-15T01:17:32;100470.81;;;4.46;71.15
77171;BME280;66144;50.020;14.422;2023-02-15T01:19:58;100469.84;;;4.47;71.14
77171;BME280;66144;50.020;14.422;2023-02-15T01:22:24;100469.38;;;4.44;71.38
77171;BME280;66144;50.020;14.422;2023-02-15T01:24:49;100467.94;;;4.41;71.34
77171;BME280;66144;50.020;14.422;2023-02-15T01:27:15;100466.47;;;4.31;71.43
77171;BME280;66144;50.020;14.422;2023-02-15T01:29:40;100466.31;;;4.32;71.29
77171;BME280;66144;50.020;14.422;2023-02-15T01:32:05;100463.09;;;4.22;71.69
77171;BME280;66144;50.020;14.422;2023-02-15T01:34:31;100460.97;;;4.26;71.38
77171;BME280;66144;50.020;14.422;2023-02-15T01:36:56;100457.44;;;4.19;71.94
77171;BME280;66144;50.020;14.422;2023-02-15T01:39:22;100454.19;;;4.25;71.62
77171;BME280;66144;50.020;14.422;2023-02-15T01:41:47;100453.25;;;4.18;71.84
77171;BME280;66144;50.020;14.422;2023-02-15T01:47:16;100443.06;;;4.08;72.02
77171;BME280;66144;50.020;14.422;2023-02-15T01:49:42;100442.72;;;4.11;71.75
77171;BME280;66144;50.020;14.422;2023-02-15T01:52:10;100441.44;;;4.07;72.13
77171;BME280;66144;50.020;14.422;2023-02-15T01:54:39;100435.63;;;4.13;71.90
77171;BME280;66144;50.020;14.422;2023-02-15T01:57:11;100439.81;;;4.14;71.45
77171;BME280;66144;50.020;14.422;2023-02-15T01:59:39;100433.53;;;4.16;71.46
77171;BME280;66144;50.020;14.422;2023-02-15T02:02:09;100428.34;;;4.08;71.63
77171;BME280;66144;50.020;14.422;2023-02-15T02:04:41;100431.94;;;3.99;71.84
77171;BME280;66144;50.020;14.422;2023-02-15T02:07:10;100423.69;;;4.04;72.14
77171;BME280;66144;50.020;14.422;2023-02-15T02:09:38;100425.28;;;4.05;71.73
77171;BME280;66144;50.020;14.422;2023-02-15T02:12:03;100423.84;;;4.10;71.82
77171;BME280;66144;50.020;14.422;2023-02-15T02:14:29;100419.47;;;4.11;71.88
77171;BME280;66144;50.020;14.422;2023-02-15T02:39:05;100409.13;;;3.70;72.59
77171;BME280;66144;50.020;14.422;2023-02-15T02:49:14;100398.66;;;3.64;72.95
77171;BME280;66144;50.020;14.422;2023-02-15T02:51:39;100406.38;;;3.72;73.51
77171;BME280;66144;50.020;14.422;2023-02-15T02:54:06;100403.34;;;3.76;72.46
77171;BME280;66144;50.020;14.422;2023-02-15T02:56:37;100409.63;;;3.82;71.97
77171;BME280;66144;50.020;14.422;2023-02-15T02:59:09;100401.53;;;3.85;72.15
77171;BME280;66144;50.020;14.422;2023-02-15T03:01:43;100401.53;;;3.85;72.00
77171;BME280;66144;50.020;14.422;2023-02-15T03:04:13;100402.50;;;3.92;71.75
77171;BME280;66144;50.020;14.422;2023-02-15T03:09:36;100400.09;;;3.91;71.92
77171;BME280;66144;50.020;14.422;2023-02-15T03:12:08;100404.13;;;3.93;71.42
77171;BME280;66144;50.020;14.422;2023-02-15T03:14:35;100400.28;;;3.81;71.78
77171;BME280;66144;50.020;14.422;2023-02-15T03:17:02;100403.16;;;3.86;72.19
77171;BME280;66144;50.020;14.422;2023-02-15T03:19:35;100400.25;;;3.89;71.78
77171;BME280;66144;50.020;14.422;2023-02-15T03:22:13;100402.19;;;3.87;71.73
77171;BME280;66144;50.020;14.422;2023-02-15T03:27:18;100390.75;;;3.81;72.25
77171;BME280;66144;50.020;14.422;2023-02-15T03:29:46;100397.84;;;3.79;71.96
77171;BME280;66144;50.020;14.422;2023-02-15T03:32:14;100387.84;;;3.76;72.54
77171;BME280;66144;50.020;14.422;2023-02-15T03:34:41;100389.91;;;3.73;72.06
77171;BME280;66144;50.020;14.422;2023-02-15T03:39:52;100381.53;;;3.79;71.18
77171;BME280;66144;50.020;14.422;2023-02-15T03:42:26;100383.13;;;3.72;71.45
77171;BME280;66144;50.020;14.422;2023-02-15T03:45:11;100378.59;;;3.66;71.94
77171;BME280;66144;50.020;14.422;2023-02-15T03:47:44;100377.81;;;3.57;72.25
77171;BME280;66144;50.020;14.422;2023-02-15T03:50:21;100379.94;;;3.62;72.58
77171;BME280;66144;50.020;14.422;2023-02-15T03:53:10;100376.69;;;3.43;73.12
77171;BME280;66144;50.020;14.422;2023-02-15T03:55:38;100385.69;;;3.47;72.97
77171;BME280;66144;50.020;14.422;2023-02-15T03:58:03;100382.50;;;3.45;72.46
77171;BME280;66144;50.020;14.422;2023-02-15T04:01:13;100379.72;;;3.47;73.30
77171;BME280;66144;50.020;14.422;2023-02-15T04:04:04;100384.72;;;3.32;72.98
77171;BME280;66144;50.020;14.422;2023-02-15T04:06:31;100380.84;;;3.36;72.84
77171;BME280;66144;50.020;14.422;2023-02-15T04:08:56;100382.78;;;3.34;73.16
77171;BME280;66144;50.020;14.422;2023-02-15T04:11:40;100374.56;;;3.39;72.49
77171;BME280;66144;50.020;14.422;2023-02-15T04:14:06;100379.72;;;3.47;72.43
77171;BME280;66144;50.020;14.422;2023-02-15T04:17:00;100373.75;;;3.38;72.65
77171;BME280;66144;50.020;14.422;2023-02-15T04:19:25;100383.59;;;3.27;73.10
77171;BME280;66144;50.020;14.422;2023-02-15T04:22:10;100378.44;;;3.27;73.30
77171;BME280;66144;50.020;14.422;2023-02-15T04:24:54;100384.69;;;3.16;73.69
77171;BME280;66144;50.020;14.422;2023-02-15T04:27:35;100373.72;;;3.14;73.72
77171;BME280;66144;50.020;14.422;2023-02-15T04:30:01;100373.41;;;3.17;73.79
77171;BME280;66144;50.020;14.422;2023-02-15T04:32:26;100372.44;;;3.18;73.29
77171;BME280;66144;50.020;14.422;2023-02-15T04:34:52;100376.47;;;3.21;73.75
77171;BME280;66144;50.020;14.422;2023-02-15T04:37:17;100375.84;;;3.27;73.14
77171;BME280;66144;50.020;14.422;2023-02-15T04:39:43;100373.59;;;3.24;73.19
77171;BME280;66144;50.020;14.422;2023-02-15T04:42:08;100373.91;;;3.21;73.12
77171;BME280;66144;50.020;14.422;2023-02-15T04:44:33;100380.16;;;3.10;73.19
77171;BME280;66144;50.020;14.422;2023-02-15T04:46:58;100376.63;;;3.19;73.14
77171;BME280;66144;50.020;14.422;2023-02-15T04:49:24;100372.59;;;3.17;73.11
77171;BME280;66144;50.020;14.422;2023-02-15T04:51:49;100371.13;;;3.06;73.51
77171;BME280;66144;50.020;14.422;2023-02-15T04:54:14;100375.00;;;3.10;73.49
77171;BME280;66144;50.020;14.422;2023-02-15T04:56:40;100378.50;;;2.93;73.70
77171;BME280;66144;50.020;14.422;2023-02-15T04:59:05;100369.47;;;2.97;74.30
77171;BME280;66144;50.020;14.422;2023-02-15T05:01:30;100368.22;;;3.01;73.60
77171;BME280;66144;50.020;14.422;2023-02-15T05:03:56;100370.63;;;3.10;74.04
77171;BME280;66144;50.020;14.422;2023-02-15T05:06:21;100359.19;;;3.13;73.47
77171;BME280;66144;50.020;14.422;2023-02-15T05:08:46;100359.84;;;3.15;73.50
77171;BME280;66144;50.020;14.422;2023-02-15T05:11:11;100360.97;;;3.12;73.71
77171;BME280;66144;50.020;14.422;2023-02-15T05:13:37;100367.91;;;3.12;73.48
77171;BME280;66144;50.020;14.422;2023-02-15T05:16:02;100363.03;;;3.09;73.18
77171;BME280;66144;50.020;14.422;2023-02-15T05:18:28;100366.59;;;3.08;73.29
77171;BME280;66144;50.020;14.422;2023-02-15T05:20:53;100364.81;;;3.08;73.71
77171;BME280;66144;50.020;14.422;2023-02-15T05:23:18;100367.88;;;2.96;73.89
77171;BME280;66144;50.020;14.422;2023-02-15T05:25:47;100367.25;;;3.02;73.58
77171;BME280;66144;50.020;14.422;2023-02-15T05:28:31;100372.06;;;2.97;73.15
77171;BME280;66144;50.020;14.422;2023-02-15T05:31:13;100370.44;;;2.88;73.84
77171;BME280;66144;50.020;14.422;2023-02-15T05:33:40;100370.44;;;2.88;74.03
77171;BME280;66144;50.020;14.422;2023-02-15T05:36:06;100371.00;;;2.73;74.02
77171;BME280;66144;50.020;14.422;2023-02-15T05:38:31;100370.03;;;2.74;74.57
77171;BME280;66144;50.020;14.422;2023-02-15T05:40:57;100364.13;;;2.82;74.16
77171;BME280;66144;50.020;14.422;2023-02-15T05:43:23;100373.28;;;2.68;74.81
77171;BME280;66144;50.020;14.422;2023-02-15T05:45:49;100376.00;;;2.75;74.59
77171;BME280;66144;50.020;14.422;2023-02-15T05:48:17;100378.38;;;2.60;74.21
77171;BME280;66144;50.020;14.422;2023-02-15T05:50:44;100383.03;;;2.57;75.10
77171;BME280;66144;50.020;14.422;2023-02-15T05:53:09;100381.00;;;2.68;74.49
77171;BME280;66144;50.020;14.422;2023-02-15T05:55:41;100371.66;;;2.75;74.22
77171;BME280;66144;50.020;14.422;2023-02-15T05:58:07;100374.91;;;2.77;73.96
77171;BME280;66144;50.020;14.422;2023-02-15T06:00:33;100376.97;;;2.66;74.35
77171;BME280;66144;50.020;14.422;2023-02-15T06:02:58;100372.28;;;2.69;74.25
77171;BME280;66144;50.020;14.422;2023-02-15T06:05:23;100376.31;;;2.72;74.59
77171;BME280;66144;50.020;14.422;2023-02-15T06:07:49;100386.63;;;2.64;74.78
77171;BME280;66144;50.020;14.422;2023-02-15T06:10:14;100382.94;;;2.74;74.96
77171;BME280;66144;50.020;14.422;2023-02-15T06:12:39;100382.63;;;2.77;74.16
77171;BME280;66144;50.020;14.422;2023-02-15T06:15:05;100386.16;;;2.68;74.21
77171;BME280;66144;50.020;14.422;2023-02-15T06:17:31;100387.44;;;2.64;74.85
77171;BME280;66144;50.020;14.422;2023-02-15T06:19:56;100390.19;;;2.71;74.28
77171;BME280;66144;50.020;14.422;2023-02-15T06:22:22;100399.72;;;2.78;74.12
77171;BME280;66144;50.020;14.422;2023-02-15T06:24:47;100399.38;;;2.73;74.17
77171;BME280;66144;50.020;14.422;2023-02-15T06:27:13;100401.13;;;2.65;74.59
77171;BME280;66144;50.020;14.422;2023-02-15T06:29:38;100408.00;;;2.56;74.88
77171;BME280;66144;50.020;14.422;2023-02-15T06:32:03;100409.53;;;2.67;74.62
77171;BME280;66144;50.020;14.422;2023-02-15T06:34:29;100408.00;;;2.56;75.52
77171;BME280;66144;50.020;14.422;2023-02-15T06:36:54;100412.09;;;2.67;74.97
77171;BME280;66144;50.020;14.422;2023-02-15T06:39:20;100414.69;;;2.67;74.81
77171;BME280;66144;50.020;14.422;2023-02-15T06:41:45;100409.69;;;2.65;75.06
77171;BME280;66144;50.020;14.422;2023-02-15T06:44:10;100412.56;;;2.62;74.97
77171;BME280;66144;50.020;14.422;2023-02-15T06:46:35;100410.00;;;2.70;74.51
77171;BME280;66144;50.020;14.422;2023-02-15T06:49:01;100410.13;;;2.61;74.64
77171;BME280;66144;50.020;14.422;2023-02-15T06:51:26;100411.97;;;2.76;74.30
77171;BME280;66144;50.020;14.422;2023-02-15T06:53:51;100412.75;;;2.69;74.49
77171;BME280;66144;50.020;14.422;2023-02-15T06:56:17;100420.50;;;2.69;75.02
77171;BME280;66144;50.020;14.422;2023-02-15T06:58:42;100419.06;;;2.74;74.64
77171;BME280;66144;50.020;14.422;2023-02-15T07:01:08;100427.31;;;2.78;73.66
77171;BME280;66144;50.020;14.422;2023-02-15T07:03:34;100420.38;;;2.78;74.09
77171;BME280;66144;50.020;14.422;2023-02-15T07:06:01;100425.56;;;2.53;74.32
77171;BME280;66144;50.020;14.422;2023-02-15T07:08:28;100425.69;;;2.51;74.96
77171;BME280;66144;50.020;14.422;2023-02-15T07:10:54;100422.53;;;2.57;74.76
77171;BME280;66144;50.020;14.422;2023-02-15T07:13:40;100421.34;;;2.52;74.94
77171;BME280;66144;50.020;14.422;2023-02-15T07:16:08;100418.31;;;2.56;74.14
77171;BME280;66144;50.020;14.422;2023-02-15T07:18:33;100424.25;;;2.49;74.81
77171;BME280;66144;50.020;14.422;2023-02-15T07:20:58;100424.75;;;2.52;74.34
77171;BME280;66144;50.020;14.422;2023-02-15T07:23:23;100417.50;;;2.56;74.49
77171;BME280;66144;50.020;14.422;2023-02-15T07:25:59;100414.69;;;2.67;74.39
77171;BME280;66144;50.020;14.422;2023-02-15T07:28:25;100411.31;;;2.66;73.96
77171;BME280;66144;50.020;14.422;2023-02-15T07:30:50;100413.53;;;2.69;74.08
77171;BME280;66144;50.020;14.422;2023-02-15T07:33:16;100402.63;;;2.75;73.65
77171;BME280;66144;50.020;14.422;2023-02-15T07:35:54;100399.69;;;2.70;74.16
77171;BME280;66144;50.020;14.422;2023-02-15T07:38:21;100395.03;;;2.74;73.87
77171;BME280;66144;50.020;14.422;2023-02-15T07:40:46;100392.44;;;2.74;73.51
77171;BME280;66144;50.020;14.422;2023-02-15T07:43:12;100390.69;;;2.74;73.73
77171;BME280;66144;50.020;14.422;2023-02-15T07:45:37;100380.56;;;2.81;73.14
77171;BME280;66144;50.020;14.422;2023-02-15T07:48:03;100380.09;;;2.86;73.48
77171;BME280;66144;50.020;14.422;2023-02-15T07:50:30;100368.31;;;2.83;73.89
77171;BME280;66144;50.020;14.422;2023-02-15T07:52:55;100370.59;;;2.86;73.47
77171;BME280;66144;50.020;14.422;2023-02-15T07:55:20;100358.34;;;2.88;73.28
77171;BME280;66144;50.020;14.422;2023-02-15T07:57:47;100356.22;;;2.84;73.41
77171;BME280;66144;50.020;14.422;2023-02-15T08:00:18;100362.00;;;2.77;73.98
77171;BME280;66144;50.020;14.422;2023-02-15T08:02:49;100363.31;;;2.82;73.77
77171;BME280;66144;50.020;14.422;2023-02-15T08:05:39;100362.47;;;2.73;74.07
77171;BME280;66144;50.020;14.422;2023-02-15T08:08:05;100368.94;;;2.77;74.11
77171;BME280;66144;50.020;14.422;2023-02-15T08:10:31;100372.34;;;2.86;74.45
77171;BME280;66144;50.020;14.422;2023-02-15T08:13:14;100376.41;;;2.88;74.00
77171;BME280;66144;50.020;14.422;2023-02-15T08:15:40;100377.69;;;2.92;73.66
77171;BME280;66144;50.020;14.422;2023-02-15T08:18:12;100366.09;;;2.88;73.67
77171;BME280;66144;50.020;14.422;2023-02-15T08:20:37;100368.00;;;2.94;73.42
77171;BME280;66144;50.020;14.422;2023-02-15T08:23:03;100366.00;;;2.72;74.18
77171;BME280;66144;50.020;14.422;2023-02-15T08:25:28;100369.25;;;2.74;73.72
77171;BME280;66144;50.020;14.422;2023-02-15T08:27:53;100366.13;;;2.62;73.54
77171;BME280;66144;50.020;14.422;2023-02-15T08:30:19;100368.00;;;2.52;74.04
77171;BME280;66144;50.020;14.422;2023-02-15T08:32:44;100367.44;;;2.66;74.50
77171;BME280;66144;50.020;14.422;2023-02-15T08:35:09;100363.09;;;2.67;73.81
77171;BME280;66144;50.020;14.422;2023-02-15T08:37:35;100363.66;;;2.53;73.45
77171;BME280;66144;50.020;14.422;2023-02-15T08:40:00;100365.53;;;2.68;73.33
77171;BME280;66144;50.020;14.422;2023-02-15T08:42:25;100362.13;;;2.68;73.28
77171;BME280;66144;50.020;14.422;2023-02-15T08:44:50;100360.69;;;2.73;72.65
77171;BME280;66144;50.020;14.422;2023-02-15T08:47:16;100365.59;;;2.85;73.30
77171;BME280;66144;50.020;14.422;2023-02-15T08:49:41;100374.53;;;2.64;73.53
77171;BME280;66144;50.020;14.422;2023-02-15T08:52:07;100363.97;;;2.84;73.68
77171;BME280;66144;50.020;14.422;2023-02-15T08:54:32;100357.84;;;2.93;72.76
77171;BME280;66144;50.020;14.422;2023-02-15T08:56:58;100355.25;;;2.93;72.17
77171;BME280;66144;50.020;14.422;2023-02-15T08:59:24;100349.34;;;3.00;71.92
77171;BME280;66144;50.020;14.422;2023-02-15T09:01:51;100349.97;;;3.02;72.22
77171;BME280;66144;50.020;14.422;2023-02-15T09:04:17;100342.75;;;3.06;72.23
77171;BME280;66144;50.020;14.422;2023-02-15T09:06:43;100349.81;;;3.12;71.50
77171;BME280;66144;50.020;14.422;2023-02-15T09:09:10;100345.50;;;3.21;71.29
77171;BME280;66144;50.020;14.422;2023-02-15T09:11:41;100349.28;;;2.84;71.84
77171;BME280;66144;50.020;14.422;2023-02-15T09:14:10;100347.47;;;2.68;72.44
77171;BME280;66144;50.020;14.422;2023-02-15T09:16:39;100348.28;;;2.77;72.55
77171;BME280;66144;50.020;14.422;2023-02-15T09:19:06;100354.09;;;2.79;72.84
77171;BME280;66144;50.020;14.422;2023-02-15T09:21:32;100356.84;;;2.77;72.75
77171;BME280;66144;50.020;14.422;2023-02-15T09:24:00;100363.41;;;2.64;73.03
77171;BME280;66144;50.020;14.422;2023-02-15T09:26:27;100359.25;;;2.79;72.49
77171;BME280;66144;50.020;14.422;2023-02-15T09:28:55;100358.97;;;2.82;72.14
77171;BME280;66144;50.020;14.422;2023-02-15T09:31:23;100355.38;;;2.75;72.56
77171;BME280;66144;50.020;14.422;2023-02-15T09:33:49;100348.09;;;2.70;72.01
77171;BME280;66144;50.020;14.422;2023-02-15T09:38:40;100347.78;;;2.73;72.89
77171;BME280;66144;50.020;14.422;2023-02-15T09:52:17;100337.56;;;3.06;71.86
77171;BME280;66144;50.020;14.422;2023-02-15T09:57:37;100328.84;;;2.99;71.91
77171;BME280;66144;50.020;14.422;2023-02-15T10:08:34;100335.97;;;3.21;70.78
77171;BME280;66144;50.020;14.422;2023-02-15T10:11:15;100335.66;;;3.24;71.35
77171;BME280;66144;50.020;14.422;2023-02-15T10:24:42;100324.53;;;3.40;70.96
77171;BME280;66144;50.020;14.422;2023-02-15T10:27:15;100330.84;;;3.37;70.36
77171;BME280;66144;50.020;14.422;2023-02-15T10:30:00;100331.47;;;3.47;69.71
77171;BME280;66144;50.020;14.422;2023-02-15T10:32:28;100323.72;;;3.56;70.38
77171;BME280;66144;50.020;14.422;2023-02-15T10:35:24;100326.16;;;3.57;70.20
77171;BME280;66144;50.020;14.422;2023-02-15T10:47:00;100314.69;;;3.43;70.59
77171;BME280;66144;50.020;14.422;2023-02-15T10:49:38;100313.72;;;3.44;70.57
77171;BME280;66144;50.020;14.422;2023-02-15T10:52:21;100304.50;;;3.50;71.03
77171;BME280;66144;50.020;14.422;2023-02-15T10:58:12;100310.16;;;3.54;71.14
77171;BME280;66144;50.020;14.422;2023-02-15T11:00:41;100298.69;;;3.48;71.42
77171;BME280;66144;50.020;14.422;2023-02-15T11:06:14;100295.66;;;3.44;72.23
77171;BME280;66144;50.020;14.422;2023-02-15T11:08:47;100287.59;;;3.23;72.04
77171;BME280;66144;50.020;14.422;2023-02-15T11:11:22;100282.75;;;3.44;71.63
77171;BME280;66144;50.020;14.422;2023-02-15T11:13:53;100278.53;;;3.60;71.07
77171;BME280;66144;50.020;14.422;2023-02-15T11:18:54;100278.69;;;3.58;70.64
77171;BME280;66144;50.020;14.422;2023-02-15T11:21:28;100279.47;;;3.75;70.70
77171;BME280;66144;50.020;14.422;2023-02-15T11:23:55;100281.53;;;3.88;69.92
77171;BME280;66144;50.020;14.422;2023-02-15T11:28:55;100276.97;;;4.06;69.71
77171;BME280;66144;50.020;14.422;2023-02-15T11:31:24;100272.16;;;4.03;69.06
77171;BME280;66144;50.020;14.422;2023-02-15T11:34:14;100278.75;;;4.05;68.92
77171;BME280;66144;50.020;14.422;2023-02-15T11:36:43;100275.22;;;3.98;69.14
77171;BME280;66144;50.020;14.422;2023-02-15T11:39:11;100266.34;;;3.93;69.15
77171;BME280;66144;50.020;14.422;2023-02-15T11:41:44;100268.28;;;3.99;69.54
77171;BME280;66144;50.020;14.422;2023-02-15T11:44:21;100260.47;;;4.07;69.11
77171;BME280;66144;50.020;14.422;2023-02-15T11:46:48;100259.97;;;4.11;69.30
77171;BME280;66144;50.020;14.422;2023-02-15T11:49:26;100259.97;;;4.11;69.43
77171;BME280;66144;50.020;14.422;2023-02-15T11:51:53;100250.44;;;4.20;68.94
77171;BME280;66144;50.020;14.422;2023-02-15T11:54:23;100248.66;;;4.21;69.07
77171;BME280;66144;50.020;14.422;2023-02-15T11:56:51;100247.31;;;4.25;68.18
77171;BME280;66144;50.020;14.422;2023-02-15T11:59:21;100237.66;;;4.19;68.47
77171;BME280;66144;50.020;14.422;2023-02-15T12:01:52;100239.06;;;4.29;68.44
77171;BME280;66144;50.020;14.422;2023-02-15T12:06:47;100228.34;;;4.40;68.40
77171;BME280;66144;50.020;14.422;2023-02-15T12:09:30;100228.38;;;4.32;67.45
77171;BME280;66144;50.020;14.422;2023-02-15T12:14:49;100225.25;;;4.14;68.97
77171;BME280;66144;50.020;14.422;2023-02-15T12:17:16;100225.09;;;4.07;68.43
77171;BME280;66144;50.020;14.422;2023-02-15T12:19:42;100220.97;;;4.29;68.72
77171;BME280;66144;50.020;14.422;2023-02-15T12:22:30;100214.72;;;4.46;67.91
77171;BME280;66144;50.020;14.422;2023-02-15T12:24:58;100214.06;;;4.53;67.86
77171;BME280;66144;50.020;14.422;2023-02-15T12:27:27;100220.97;;;4.60;67.31
77171;BME280;66144;50.020;14.422;2023-02-15T12:33:18;100206.00;;;4.70;66.16
77171;BME280;66144;50.020;14.422;2023-02-15T12:35:47;100206.34;;;4.67;66.77
77171;BME280;66144;50.020;14.422;2023-02-15T12:38:24;100200.31;;;4.75;66.35
77171;BME280;66144;50.020;14.422;2023-02-15T12:43:37;100189.72;;;4.84;66.10
77171;BME280;66144;50.020;14.422;2023-02-15T12:46:25;100192.06;;;4.79;66.10
77171;BME280;66144;50.020;14.422;2023-02-15T12:51:54;100183.09;;;4.82;66.41
77171;BME280;66144;50.020;14.422;2023-02-15T12:54:40;100177.25;;;4.88;65.94
77171;BME280;66144;50.020;14.422;2023-02-15T12:57:39;100172.31;;;4.78;66.41
77171;BME280;66144;50.020;14.422;2023-02-15T13:00:11;100166.56;;;4.68;66.29
77171;BME280;66144;50.020;14.422;2023-02-15T13:02:54;100173.13;;;4.79;66.71
77171;BME280;66144;50.020;14.422;2023-02-15T13:05:39;100168.63;;;4.50;67.20
77171;BME280;66144;50.020;14.422;2023-02-15T13:08:15;100174.84;;;4.64;66.63
77171;BME280;66144;50.020;14.422;2023-02-15T13:13:32;100158.53;;;4.40;67.72
77171;BME280;66144;50.020;14.422;2023-02-15T13:16:04;100160.69;;;4.51;67.60
77171;BME280;66144;50.020;14.422;2023-02-15T13:18:35;100158.97;;;4.44;67.23
77171;BME280;66144;50.020;14.422;2023-02-15T13:21:24;100152.09;;;4.59;67.48
77171;BME280;66144;50.020;14.422;2023-02-15T13:26:45;100144.69;;;4.94;66.36
77171;BME280;66144;50.020;14.422;2023-02-15T13:29:24;100151.94;;;4.98;65.72
77171;BME280;66144;50.020;14.422;2023-02-15T13:31:51;100145.31;;;4.96;66.33
77171;BME280;66144;50.020;14.422;2023-02-15T13:34:29;100150.31;;;4.97;65.94
77171;BME280;66144;50.020;14.422;2023-02-15T13:37:08;100152.25;;;4.80;65.72
77171;BME280;66144;50.020;14.422;2023-02-15T13:39:38;100145.81;;;4.76;66.45
77171;BME280;66144;50.020;14.422;2023-02-15T13:50:52;100139.72;;;5.21;65.92
77171;BME280;66144;50.020;14.422;2023-02-15T13:56:23;100134.91;;;5.33;64.90
77171;BME280;66144;50.020;14.422;2023-02-15T13:58:59;100131.88;;;5.44;64.76
77171;BME280;66144;50.020;14.422;2023-02-15T14:01:49;100127.31;;;5.46;64.28
77171;BME280;66144;50.020;14.422;2023-02-15T14:10:29;100128.47;;;5.73;63.77
77171;BME280;66144;50.020;14.422;2023-02-15T14:13:03;100119.59;;;5.82;63.38
77171;BME280;66144;50.020;14.422;2023-02-15T14:15:50;100124.91;;;5.89;63.01
77171;BME280;66144;50.020;14.422;2023-02-15T14:31:18;100115.91;;;5.55;64.01
77171;BME280;66144;50.020;14.422;2023-02-15T14:33:54;100105.53;;;5.55;64.26
77171;BME280;66144;50.020;14.422;2023-02-15T14:36:20;100105.34;;;5.57;63.95
77171;BME280;66144;50.020;14.422;2023-02-15T14:39:52;100110.00;;;5.47;64.30
77171;BME280;66144;50.020;14.422;2023-02-15T14:42:18;100100.06;;;5.50;64.27
77171;BME280;66144;50.020;14.422;2023-02-15T14:44:52;100110.09;;;5.53;64.10
77171;BME280;66144;50.020;14.422;2023-02-15T14:47:27;100103.28;;;5.52;64.70
77171;BME280;66144;50.020;14.422;2023-02-15T14:49:55;100110.78;;;5.47;64.40
77171;BME280;66144;50.020;14.422;2023-02-15T14:52:21;100100.59;;;5.46;64.41
77171;BME280;66144;50.020;14.422;2023-02-15T15:12:44;100103.03;;;5.18;65.50
77171;BME280;66144;50.020;14.422;2023-02-15T15:15:34;100098.84;;;5.17;65.72
77171;BME280;66144;50.020;14.422;2023-02-15T15:25:58;100100.25;;;5.05;65.97
77171;BME280;66144;50.020;14.422;2023-02-15T15:31:21;100100.50;;;4.95;66.34
77171;BME280;66144;50.020;14.422;2023-02-15T15:42:04;100087.34;;;4.82;66.49
77171;BME280;66144;50.020;14.422;2023-02-15T15:49:36;100081.81;;;4.70;67.25
77171;BME280;66144;50.020;14.422;2023-02-15T15:52:12;100083.13;;;4.66;67.17
77171;BME280;66144;50.020;14.422;2023-02-15T15:54:40;100084.44;;;4.62;66.94
77171;BME280;66144;50.020;14.422;2023-02-15T15:57:16;100081.25;;;4.60;67.11
77171;BME280;66144;50.020;14.422;2023-02-15T15:59:45;100091.31;;;4.55;67.24
77171;BME280;66144;50.020;14.422;2023-02-15T16:02:16;100087.81;;;4.48;67.70
77171;BME280;66144;50.020;14.422;2023-02-15T16:04:43;100081.38;;;4.44;67.26
77171;BME280;66144;50.020;14.422;2023-02-15T16:10:04;100080.84;;;4.26;67.61
77171;BME280;66144;50.020;14.422;2023-02-15T16:12:33;100077.19;;;4.20;68.08
77171;BME280;66144;50.020;14.422;2023-02-15T16:15:02;100073.69;;;4.13;68.24
77171;BME280;66144;50.020;14.422;2023-02-15T16:17:31;100080.50;;;4.06;67.75